createdAt,value
2018-12-22T00:01:11.423Z,31.57
2018-12-22T00:03:40.563Z,34.77
2018-12-22T00:06:09.861Z,31.57
2018-12-22T00:08:38.893Z,33.13
2018-12-22T00:11:07.921Z,30.67
2018-12-22T00:13:36.945Z,33.40
2018-12-22T00:16:06.297Z,33.90
2018-12-22T00:18:35.302Z,34.50
2018-12-22T00:21:04.578Z,32.50
2018-12-22T00:23:33.654Z,33.47
2018-12-22T00:26:02.795Z,33.27
2018-12-22T00:28:31.861Z,33.30
2018-12-22T00:31:00.924Z,33.47
2018-12-22T00:33:29.962Z,33.10
2018-12-22T00:35:58.973Z,34.63
2018-12-22T00:38:28.049Z,33.80
2018-12-22T00:40:57.173Z,33.23
2018-12-22T00:43:26.198Z,31.73
2018-12-22T00:45:55.195Z,32.37
2018-12-22T00:48:24.259Z,32.53
2018-12-22T00:50:53.731Z,31.77
2018-12-22T00:53:22.873Z,32.73
2018-12-22T00:55:51.937Z,32.67
2018-12-22T00:58:30.526Z,32.97
2018-12-22T01:00:53.525Z,32.47
2018-12-22T01:03:22.709Z,31.83
2018-12-22T01:05:51.853Z,33.17
2018-12-22T01:08:20.913Z,33.43
2018-12-22T01:10:49.919Z,32.10
2018-12-22T01:13:19.090Z,32.93
2018-12-22T01:15:48.381Z,34.07
2018-12-22T01:18:17.738Z,31.27
2018-12-22T01:20:46.758Z,32.47
2018-12-22T01:23:16.033Z,31.20
2018-12-22T01:25:45.362Z,32.23
2018-12-22T01:28:20.934Z,31.43
2018-12-22T01:30:49.942Z,31.33
2018-12-22T01:33:18.952Z,31.43
2018-12-22T01:35:48.038Z,30.77
2018-12-22T01:38:17.058Z,30.57
2018-12-22T01:40:46.113Z,30.37
2018-12-22T01:43:15.362Z,31.13
2018-12-22T01:45:44.367Z,31.30
2018-12-22T01:48:13.490Z,30.93
2018-12-22T01:50:42.515Z,30.10
2018-12-22T01:53:11.554Z,29.77
2018-12-22T01:55:40.646Z,28.87
2018-12-22T01:58:10.166Z,28.63
2018-12-22T02:00:39.535Z,29.70
2018-12-22T02:03:08.555Z,27.87
2018-12-22T02:05:37.619Z,28.53
2018-12-22T02:08:06.818Z,27.70
2018-12-22T02:10:35.801Z,28.87
2018-12-22T02:13:05.150Z,28.23
2018-12-22T02:15:34.149Z,27.63
2018-12-22T02:18:03.226Z,26.33
2018-12-22T02:20:32.401Z,27.00
2018-12-22T02:23:01.506Z,27.07
2018-12-22T02:25:30.538Z,26.50
2018-12-22T02:27:59.586Z,26.47
2018-12-22T02:30:28.620Z,26.83
2018-12-22T02:32:57.760Z,25.87
2018-12-22T02:35:26.778Z,26.00
2018-12-22T02:37:55.823Z,25.73
2018-12-22T02:40:24.914Z,24.10
2018-12-22T02:42:54.363Z,24.53
2018-12-22T02:45:23.433Z,23.37
2018-12-22T02:47:52.870Z,24.70
2018-12-22T02:50:21.878Z,24.70
2018-12-22T02:52:50.902Z,25.73
2018-12-22T02:55:19.959Z,25.37
2018-12-22T02:57:49.016Z,25.60
2018-12-22T03:00:18.159Z,23.53
2018-12-22T03:02:47.398Z,23.63
2018-12-22T03:05:17.272Z,23.90
2018-12-22T03:07:46.282Z,24.90
2018-12-22T03:10:16.278Z,22.73
2018-12-22T03:12:45.584Z,22.97
2018-12-22T03:15:14.674Z,23.10
2018-12-22T03:17:43.698Z,22.63
2018-12-22T03:20:12.714Z,23.00
2018-12-22T03:22:41.862Z,22.87
2018-12-22T03:25:11.122Z,22.47
2018-12-22T03:27:40.297Z,23.37
2018-12-22T03:30:09.416Z,23.50
2018-12-22T03:32:38.715Z,23.47
2018-12-22T03:35:08.095Z,23.53
2018-12-22T03:37:37.138Z,22.27
2018-12-22T03:40:08.173Z,22.90
2018-12-22T03:42:37.212Z,21.33
2018-12-22T03:45:06.613Z,21.07
2018-12-22T03:47:35.688Z,19.63
2018-12-22T03:50:05.010Z,20.37
2018-12-22T03:52:34.077Z,20.00
2018-12-22T03:57:38.339Z,19.10
2018-12-22T04:00:07.799Z,18.33
2018-12-22T04:02:37.070Z,19.27
2018-12-22T04:05:07.362Z,18.73
2018-12-22T04:07:36.706Z,17.87
2018-12-22T04:10:06.533Z,16.90
2018-12-22T04:12:35.694Z,16.23
2018-12-22T04:15:07.795Z,15.90
2018-12-22T04:17:36.809Z,15.73
2018-12-22T04:20:07.008Z,15.33
2018-12-22T04:22:36.104Z,13.73
2018-12-22T04:25:05.178Z,13.03
2018-12-22T04:27:34.434Z,12.73
2018-12-22T04:30:04.929Z,13.50
2018-12-22T04:32:33.976Z,12.47
2018-12-22T04:35:03.220Z,12.30
2018-12-22T04:37:32.289Z,12.47
2018-12-22T04:40:01.535Z,12.40
2018-12-22T04:42:30.602Z,12.70
2018-12-22T04:44:59.642Z,11.97
2018-12-22T04:47:28.767Z,11.63
2018-12-22T04:49:57.758Z,12.23
2018-12-22T04:52:27.083Z,11.63
2018-12-22T04:54:56.113Z,11.83
2018-12-22T04:57:25.618Z,11.87
2018-12-22T04:59:54.634Z,11.20
2018-12-22T05:02:23.659Z,11.53
2018-12-22T05:04:53.017Z,11.63
2018-12-22T05:07:22.113Z,11.03
2018-12-22T05:09:51.251Z,11.27
2018-12-22T05:12:20.336Z,11.23
2018-12-22T05:14:49.349Z,11.40
2018-12-22T05:17:18.448Z,10.93
2018-12-22T05:19:47.542Z,10.83
2018-12-22T05:22:16.734Z,10.43
2018-12-22T05:24:45.805Z,11.77
2018-12-22T05:27:15.366Z,10.23
2018-12-22T05:29:51.549Z,11.17
2018-12-22T05:32:15.506Z,10.70
2018-12-22T05:34:44.507Z,10.37
2018-12-22T05:37:13.583Z,10.60
2018-12-22T05:39:42.642Z,10.53
2018-12-22T05:42:11.682Z,10.47
2018-12-22T05:44:40.810Z,10.07
2018-12-22T05:47:09.848Z,10.70
2018-12-22T05:49:39.170Z,9.30
2018-12-22T05:52:08.238Z,9.90
2018-12-22T05:54:37.248Z,10.27
2018-12-22T05:57:06.298Z,10.27
2018-12-22T05:59:35.393Z,10.50
2018-12-22T06:02:04.529Z,10.27
2018-12-22T06:04:33.558Z,10.27
2018-12-22T06:07:02.650Z,10.40
2018-12-22T06:09:31.704Z,10.23
2018-12-22T06:12:01.387Z,10.00
2018-12-22T06:14:30.429Z,8.97
2018-12-22T06:16:59.482Z,9.50
2018-12-22T06:19:28.596Z,9.07
2018-12-22T06:21:57.652Z,8.83
2018-12-22T06:24:27.189Z,8.83
2018-12-22T06:26:56.299Z,8.27
2018-12-22T06:29:25.506Z,8.00
2018-12-22T06:31:54.547Z,7.87
2018-12-22T06:34:23.558Z,7.80
2018-12-22T06:36:52.598Z,8.17
2018-12-22T06:39:23.706Z,8.13
2018-12-22T06:41:53.170Z,8.10
2018-12-22T06:44:22.512Z,8.10
2018-12-22T06:46:51.590Z,7.57
2018-12-22T06:49:20.599Z,7.83
2018-12-22T06:51:56.124Z,7.67
2018-12-22T06:54:25.180Z,7.83
2018-12-22T06:56:54.244Z,7.33
2018-12-22T06:59:24.090Z,7.90
2018-12-22T07:01:53.109Z,8.10
2018-12-22T07:04:22.246Z,8.73
2018-12-22T07:06:51.336Z,8.20
2018-12-22T07:09:20.435Z,7.67
2018-12-22T07:11:49.644Z,7.93
2018-12-22T07:14:18.763Z,7.20
2018-12-22T07:16:48.008Z,7.17
2018-12-22T07:19:17.679Z,7.07
2018-12-22T07:21:46.738Z,7.20
2018-12-22T07:24:15.921Z,6.83
2018-12-22T07:26:44.976Z,6.90
2018-12-22T07:29:14.073Z,7.23
2018-12-22T07:31:46.908Z,7.07
2018-12-22T07:34:15.953Z,6.97
2018-12-22T07:36:45.165Z,6.50
2018-12-22T07:39:14.585Z,6.53
2018-12-22T07:41:43.669Z,6.67
2018-12-22T07:44:12.851Z,6.20
2018-12-22T07:46:42.403Z,7.30
2018-12-22T07:49:11.437Z,6.50
2018-12-22T07:51:40.465Z,7.00
2018-12-22T07:54:09.670Z,6.53
2018-12-22T07:56:38.983Z,7.00
2018-12-22T07:59:07.983Z,6.77
2018-12-22T08:01:37.027Z,7.47
2018-12-22T08:04:06.286Z,6.60
2018-12-22T08:06:35.282Z,6.27
2018-12-22T08:09:06.797Z,6.33
2018-12-22T08:11:36.014Z,6.60
2018-12-22T08:14:05.193Z,6.13
2018-12-22T08:16:34.310Z,6.57
2018-12-22T08:19:03.369Z,6.47
2018-12-22T08:21:32.599Z,6.10
2018-12-22T08:24:01.956Z,5.40
2018-12-22T08:26:31.249Z,5.87
2018-12-22T08:29:00.354Z,5.67
2018-12-22T08:31:29.493Z,5.83
2018-12-22T08:33:58.526Z,6.53
2018-12-22T08:36:27.919Z,6.07
2018-12-22T08:38:56.914Z,5.60
2018-12-22T08:41:26.067Z,5.83
2018-12-22T08:43:55.257Z,5.77
2018-12-22T08:46:24.483Z,5.57
2018-12-22T08:48:53.709Z,5.33
2018-12-22T08:51:22.888Z,5.73
2018-12-22T08:53:52.068Z,5.80
2018-12-22T08:56:21.093Z,6.93
2018-12-22T08:58:50.294Z,6.80
2018-12-22T09:01:20.110Z,7.30
2018-12-22T09:03:49.162Z,6.77
2018-12-22T09:06:18.203Z,7.37
2018-12-22T09:08:47.398Z,7.50
2018-12-22T09:11:16.442Z,7.67
2018-12-22T09:13:45.652Z,7.30
2018-12-22T09:16:14.767Z,7.23
2018-12-22T09:18:43.836Z,7.27
2018-12-22T09:21:12.922Z,7.73
2018-12-22T09:23:42.026Z,7.33
2018-12-22T09:26:11.081Z,7.17
2018-12-22T09:28:40.391Z,5.70
2018-12-22T09:31:09.610Z,6.03
2018-12-22T09:33:38.689Z,6.20
2018-12-22T09:36:07.733Z,6.47
2018-12-22T09:38:36.739Z,6.47
2018-12-22T09:41:05.733Z,6.20
2018-12-22T09:43:34.767Z,6.50
2018-12-22T09:46:03.749Z,6.47
2018-12-22T09:48:33.111Z,7.27
2018-12-22T09:51:02.110Z,5.80
2018-12-22T09:53:31.132Z,4.83
2018-12-22T09:56:00.464Z,4.50
2018-12-22T09:58:29.521Z,4.10
2018-12-22T10:00:58.581Z,4.30
2018-12-22T10:03:27.703Z,4.50
2018-12-22T10:05:56.923Z,3.43
2018-12-22T10:08:25.974Z,4.20
2018-12-22T10:10:55.001Z,3.57
2018-12-22T10:13:24.252Z,4.00
2018-12-22T10:15:59.661Z,4.07
2018-12-22T10:18:35.283Z,3.33
2018-12-22T10:21:04.302Z,2.97
2018-12-22T10:23:33.399Z,3.40
2018-12-22T10:26:02.416Z,3.17
2018-12-22T10:28:31.559Z,3.20
2018-12-22T10:31:00.573Z,2.47
2018-12-22T10:33:29.629Z,2.70
2018-12-22T10:36:08.078Z,2.80
2018-12-22T10:38:37.137Z,2.50
2018-12-22T10:41:06.354Z,2.57
2018-12-22T10:43:35.408Z,2.27
2018-12-22T10:46:04.627Z,2.40
2018-12-22T10:48:33.956Z,2.23
2018-12-22T10:51:03.020Z,2.00
2018-12-22T10:53:32.105Z,2.00
2018-12-22T10:56:01.175Z,2.03
2018-12-22T10:58:30.333Z,2.23
2018-12-22T11:01:00.405Z,2.17
2018-12-22T11:03:29.476Z,1.50
2018-12-22T11:05:58.499Z,1.70
2018-12-22T11:08:28.565Z,1.70
2018-12-22T11:10:57.916Z,1.53
2018-12-22T11:13:26.955Z,1.77
2018-12-22T11:15:56.007Z,2.00
2018-12-22T11:18:25.052Z,1.90
2018-12-22T11:20:55.274Z,2.47
2018-12-22T11:23:25.470Z,2.50
2018-12-22T11:25:54.978Z,2.80
2018-12-22T11:28:24.067Z,2.93
2018-12-22T11:30:53.120Z,3.10
2018-12-22T11:33:22.290Z,2.67
2018-12-22T11:35:51.446Z,2.97
2018-12-22T11:38:20.762Z,3.60
2018-12-22T11:40:49.874Z,3.93
2018-12-22T11:43:18.976Z,3.70
2018-12-22T11:45:48.340Z,3.70
2018-12-22T11:48:31.328Z,4.00
2018-12-22T11:51:00.422Z,3.83
2018-12-22T11:53:29.582Z,3.80
2018-12-22T11:55:58.669Z,3.40
2018-12-22T11:58:28.073Z,3.50
2018-12-22T12:00:57.401Z,4.07
2018-12-22T12:03:26.490Z,3.67
2018-12-22T12:05:55.547Z,3.67
2018-12-22T12:08:26.164Z,3.47
2018-12-22T12:10:57.418Z,3.20
2018-12-22T12:13:27.849Z,3.50
2018-12-22T12:16:18.869Z,3.40
2018-12-22T12:18:54.830Z,3.30
2018-12-22T12:21:23.883Z,2.80
2018-12-22T12:23:52.935Z,2.77
2018-12-22T12:26:22.555Z,2.97
2018-12-22T12:28:52.124Z,2.83
2018-12-22T12:31:21.998Z,2.83
2018-12-22T12:33:51.299Z,2.70
2018-12-22T12:36:20.434Z,2.90
2018-12-22T12:38:49.548Z,2.90
2018-12-22T12:41:18.588Z,2.90
2018-12-22T12:43:47.599Z,2.70
2018-12-22T12:46:16.888Z,3.00
2018-12-22T12:48:45.918Z,3.10
2018-12-22T12:51:15.890Z,2.50
2018-12-22T12:53:44.914Z,2.90
2018-12-22T12:56:17.972Z,2.80
2018-12-22T12:58:47.342Z,2.87
2018-12-22T13:01:16.678Z,3.10
2018-12-22T13:03:47.196Z,2.80
2018-12-22T13:06:18.300Z,3.57
2018-12-22T13:08:47.618Z,3.43
2018-12-22T13:11:23.603Z,4.00
2018-12-22T13:14:01.133Z,3.60
2018-12-22T13:16:30.935Z,3.50
2018-12-22T13:19:00.003Z,3.60
2018-12-22T13:21:29.609Z,3.50
2018-12-22T13:23:58.950Z,3.50
2018-12-22T13:26:36.558Z,3.40
2018-12-22T13:28:59.287Z,3.40
2018-12-22T13:31:29.962Z,3.70
2018-12-22T13:33:59.387Z,3.50
2018-12-22T13:36:34.615Z,3.77
2018-12-22T13:39:09.662Z,3.90
2018-12-22T13:41:38.745Z,3.87
2018-12-22T13:44:07.831Z,4.30
2018-12-22T13:46:36.861Z,4.00
2018-12-22T13:49:06.173Z,4.07
2018-12-22T13:51:35.886Z,3.70
2018-12-22T13:54:05.165Z,2.83
2018-12-22T13:56:34.626Z,3.10
2018-12-22T13:59:04.060Z,3.20
2018-12-22T14:01:37.337Z,3.47
2018-12-22T14:04:06.653Z,3.10
2018-12-22T14:06:41.081Z,4.20
2018-12-22T14:09:11.052Z,4.33
2018-12-22T14:11:41.253Z,4.43
2018-12-22T14:14:15.258Z,4.90
2018-12-22T14:16:53.385Z,4.70
2018-12-22T14:19:22.664Z,3.63
2018-12-22T14:21:52.013Z,3.53
2018-12-22T14:24:32.393Z,3.80
2018-12-22T14:27:01.679Z,3.40
2018-12-22T14:29:30.691Z,3.63
2018-12-22T14:32:00.004Z,3.23
2018-12-22T14:34:32.925Z,2.80
2018-12-22T14:37:02.326Z,2.60
2018-12-22T14:39:31.549Z,2.63
2018-12-22T14:42:00.733Z,3.70
2018-12-22T14:44:29.895Z,4.33
2018-12-22T14:46:59.097Z,3.83
2018-12-22T14:49:28.393Z,2.97
2018-12-22T14:51:57.449Z,3.27
2018-12-22T14:54:26.819Z,3.53
2018-12-22T14:57:02.529Z,3.20
2018-12-22T14:59:31.535Z,3.03
2018-12-22T15:02:01.583Z,2.83
2018-12-22T15:04:30.685Z,2.23
2018-12-22T15:06:59.993Z,2.50
2018-12-22T15:09:29.196Z,2.97
2018-12-22T15:11:58.592Z,3.10
2018-12-22T15:14:27.911Z,2.67
2018-12-22T15:16:57.258Z,3.27
2018-12-22T15:19:26.717Z,3.30
2018-12-22T15:21:58.157Z,3.57
2018-12-22T15:24:27.434Z,3.70
2018-12-22T15:26:56.565Z,3.73
2018-12-22T15:29:27.814Z,3.90
2018-12-22T15:31:57.208Z,4.07
2018-12-22T15:34:26.206Z,4.53
2018-12-22T15:36:57.106Z,4.90
2018-12-22T15:39:27.390Z,5.40
2018-12-22T15:41:56.918Z,5.50
2018-12-22T15:44:27.204Z,5.67
2018-12-22T15:46:57.170Z,6.40
2018-12-22T15:49:27.026Z,6.70
2018-12-22T15:51:57.036Z,6.37
2018-12-22T15:54:26.444Z,6.83
2018-12-22T15:56:55.720Z,6.30
2018-12-22T15:59:25.939Z,7.37
2018-12-22T16:01:55.985Z,6.87
2018-12-22T16:04:26.435Z,6.93
2018-12-22T16:06:56.209Z,6.67
2018-12-22T16:09:26.206Z,6.27
2018-12-22T16:11:56.056Z,6.40
2018-12-22T16:14:26.781Z,7.20
2018-12-22T16:16:56.175Z,7.13
2018-12-22T16:19:25.598Z,6.93
2018-12-22T16:21:55.648Z,6.77
2018-12-22T16:24:26.013Z,6.93
2018-12-22T16:26:56.262Z,7.47
2018-12-22T16:29:33.175Z,7.97
2018-12-22T16:32:02.902Z,8.13
2018-12-22T16:34:32.519Z,7.57
2018-12-22T16:37:02.733Z,8.77
2018-12-22T16:39:32.828Z,9.20
2018-12-22T16:42:02.955Z,9.80
2018-12-22T16:44:34.628Z,9.60
2018-12-22T16:47:04.930Z,7.50
2018-12-22T16:49:34.761Z,8.20
2018-12-22T16:52:04.157Z,8.43
2018-12-22T16:54:33.154Z,7.87
2018-12-22T16:57:02.230Z,8.53
2018-12-22T16:59:33.357Z,7.70
2018-12-22T17:02:41.609Z,7.97
2018-12-22T17:05:11.051Z,7.80
2018-12-22T17:07:46.913Z,7.70
2018-12-22T17:10:16.253Z,7.63
2018-12-22T17:12:45.593Z,7.37
2018-12-22T17:15:21.817Z,7.30
2018-12-22T17:17:47.149Z,6.87
2018-12-22T17:20:16.730Z,5.37
2018-12-22T17:22:56.703Z,6.60
2018-12-22T17:25:36.937Z,5.87
2018-12-22T17:28:06.220Z,5.60
2018-12-22T17:30:35.262Z,5.97
2018-12-22T17:33:04.367Z,5.67
2018-12-22T17:35:34.288Z,6.07
2018-12-22T17:38:04.352Z,6.00
2018-12-22T17:40:33.415Z,6.00
2018-12-22T17:43:03.674Z,6.37
2018-12-22T17:45:32.874Z,6.40
2018-12-22T17:48:02.258Z,7.37
2018-12-22T17:50:31.456Z,8.00
2018-12-22T17:53:00.554Z,7.27
2018-12-22T17:55:29.578Z,6.70
2018-12-22T17:57:58.715Z,7.20
2018-12-22T18:00:27.768Z,7.73
2018-12-22T18:02:56.924Z,7.10
2018-12-22T18:05:25.942Z,7.73
2018-12-22T18:07:55.145Z,7.53
2018-12-22T18:10:24.607Z,8.27
2018-12-22T18:12:53.704Z,5.60
2018-12-22T18:15:24.024Z,7.20
2018-12-22T18:17:53.093Z,6.30
2018-12-22T18:20:22.467Z,7.23
2018-12-22T18:22:51.466Z,8.17
2018-12-22T18:25:20.594Z,6.53
2018-12-22T18:27:49.718Z,6.60
2018-12-22T18:30:18.766Z,7.17
2018-12-22T18:32:48.359Z,6.70
2018-12-22T18:35:17.607Z,6.93
2018-12-22T18:37:46.693Z,5.60
2018-12-22T18:40:18.719Z,5.50
2018-12-22T18:42:48.059Z,6.37
2018-12-22T18:45:17.300Z,5.53
2018-12-22T18:47:46.387Z,6.47
2018-12-22T18:50:21.405Z,5.63
2018-12-22T18:52:50.976Z,6.67
2018-12-22T18:55:19.969Z,5.00
2018-12-22T18:57:52.014Z,5.47
2018-12-22T19:00:22.574Z,5.73
2018-12-22T19:02:52.469Z,5.87
2018-12-22T19:05:22.795Z,6.13
2018-12-22T19:07:56.620Z,6.00
2018-12-22T19:10:35.241Z,6.00
2018-12-22T19:13:04.570Z,5.90
2018-12-22T19:15:33.877Z,4.97
2018-12-22T19:18:02.963Z,5.20
2018-12-22T19:20:38.717Z,5.97
2018-12-22T19:23:08.619Z,5.80
2018-12-22T19:25:37.713Z,5.37
2018-12-22T19:28:06.753Z,5.73
2018-12-22T19:30:36.089Z,6.20
2018-12-22T19:33:05.304Z,5.40
2018-12-22T19:35:34.635Z,5.00
2018-12-22T19:38:03.685Z,6.13
2018-12-22T19:40:32.711Z,6.07
2018-12-22T19:43:01.759Z,6.20
2018-12-22T19:45:30.817Z,6.77
2018-12-22T19:47:59.867Z,5.77
2018-12-22T19:50:35.557Z,6.33
2018-12-22T19:53:04.899Z,6.37
2018-12-22T19:55:34.555Z,6.67
2018-12-22T19:58:03.886Z,6.00
2018-12-22T20:00:34.006Z,6.53
2018-12-22T20:03:04.323Z,6.60
2018-12-22T20:05:35.182Z,6.93
2018-12-22T20:08:04.731Z,6.37
2018-12-22T20:10:34.923Z,6.77
2018-12-22T20:13:04.243Z,7.20
2018-12-22T20:15:33.763Z,6.37
2018-12-22T20:18:03.965Z,6.63
2018-12-22T20:20:33.272Z,6.57
2018-12-22T20:23:03.531Z,7.10
2018-12-22T20:25:33.178Z,6.83
2018-12-22T20:28:02.449Z,5.73
2018-12-22T20:30:35.022Z,7.17
2018-12-22T20:33:08.635Z,6.60
2018-12-22T20:35:39.130Z,7.30
2018-12-22T20:38:09.103Z,6.50
2018-12-22T20:40:38.859Z,6.23
2018-12-22T20:43:09.036Z,8.10
2018-12-22T20:45:42.057Z,7.00
2018-12-22T20:48:14.563Z,7.93
2018-12-22T20:50:46.372Z,5.13
2018-12-22T20:53:18.730Z,8.20
2018-12-22T20:55:48.423Z,7.43
2018-12-22T20:58:18.888Z,7.93
2018-12-22T21:00:48.922Z,6.63
2018-12-22T21:03:22.279Z,7.47
2018-12-22T21:05:58.326Z,8.00
2018-12-22T21:08:27.616Z,6.90
2018-12-22T21:10:59.178Z,8.03
2018-12-22T21:13:28.362Z,8.27
2018-12-22T21:15:58.510Z,5.83
2018-12-22T21:18:27.638Z,6.90
2018-12-22T21:20:57.412Z,7.50
2018-12-22T21:23:28.262Z,7.20
2018-12-22T21:26:04.588Z,7.70
2018-12-22T21:28:35.206Z,6.60
2018-12-22T21:31:04.263Z,6.87
2018-12-22T21:33:35.785Z,6.50
2018-12-22T21:36:04.802Z,7.23
2018-12-22T21:38:34.201Z,6.60
2018-12-22T21:41:04.256Z,7.27
2018-12-22T21:43:33.811Z,8.40
2018-12-22T21:46:03.468Z,7.87
2018-12-22T21:48:34.941Z,8.97
2018-12-22T21:51:04.173Z,8.10
2018-12-22T21:53:33.658Z,8.73
2018-12-22T21:56:04.873Z,9.20
2018-12-22T21:58:33.900Z,9.40
2018-12-22T22:01:03.215Z,9.30
2018-12-22T22:03:32.522Z,8.43
2018-12-22T22:06:01.530Z,8.23
2018-12-22T22:08:30.792Z,9.53
2018-12-22T22:10:59.860Z,8.23
2018-12-22T22:13:29.184Z,8.30
2018-12-22T22:15:58.238Z,9.27
2018-12-22T22:18:27.321Z,8.97
2018-12-22T22:20:56.370Z,8.10
2018-12-22T22:23:25.381Z,9.73
2018-12-22T22:25:54.560Z,8.70
2018-12-22T22:28:23.576Z,9.20
2018-12-22T22:30:52.622Z,9.23
2018-12-22T22:33:21.712Z,10.20
2018-12-22T22:35:50.838Z,9.00
2018-12-22T22:38:19.948Z,10.03
2018-12-22T22:40:48.998Z,9.87
2018-12-22T22:43:18.082Z,9.20
2018-12-22T22:45:47.173Z,11.00
2018-12-22T22:48:16.260Z,10.00
2018-12-22T22:50:45.328Z,9.57
2018-12-22T22:53:14.561Z,9.47
2018-12-22T22:55:43.563Z,11.30
2018-12-22T22:58:12.816Z,11.23
2018-12-22T23:00:42.734Z,9.87
2018-12-22T23:03:12.034Z,10.53
2018-12-22T23:05:41.146Z,11.37
2018-12-22T23:08:10.290Z,10.17
2018-12-22T23:10:39.610Z,10.27
2018-12-22T23:13:08.699Z,11.77
2018-12-22T23:15:37.745Z,11.63
2018-12-22T23:18:07.353Z,10.10
2018-12-22T23:20:36.523Z,9.97
2018-12-22T23:23:05.773Z,10.23
2018-12-22T23:25:35.121Z,10.63
2018-12-22T23:28:04.140Z,11.63
2018-12-22T23:30:33.162Z,10.63
2018-12-22T23:33:02.193Z,10.77
2018-12-22T23:35:31.258Z,13.03
2018-12-22T23:38:00.401Z,11.53
2018-12-22T23:40:29.448Z,11.37
2018-12-22T23:42:58.474Z,11.10
2018-12-22T23:45:27.506Z,11.83
2018-12-22T23:47:56.638Z,10.53
2018-12-22T23:50:26.110Z,10.27
2018-12-22T23:52:55.267Z,9.80
2018-12-22T23:55:24.344Z,10.63
2018-12-22T23:57:54.764Z,9.40
